Time;durP1;ratioP1;P1;durP2;ratioP2;P2;SDS_P1;SDS_P2;PMS_P1;PMS_P2;Temp;Humidity;BMP_temperature;BMP_pressure;BME280_temperature;BME280_humidity;BME280_pressure;Samples;Min_cycle;Max_cycle;Signal;HPM_P1;HPM_P2
2022/09/16 00:00:01;;;;;;;578.47;530.75;;;;;;;24.00;62.75;98873.59;293949;33;6403;-76
2022/09/16 00:00:12;;;;;;;573.13;525.47;;;;;;;24.01;62.93;98880.63;292159;33;906;-76
2022/09/16 00:00:23;;;;;;;566.10;518.63;;;;;;;24.03;62.63;98871.44;294237;33;4946;-76
2022/09/16 00:00:33;;;;;;;562.05;514.53;;;;;;;24.03;62.81;98873.28;291260;33;4800;-77
2022/09/16 00:00:44;;;;;;;565.42;517.83;;;;;;;24.04;62.31;98870.44;290070;34;912;-76
2022/09/16 00:00:54;;;;;;;564.37;516.77;;;;;;;24.04;62.43;98878.47;284316;34;1645;-76
2022/09/16 00:01:10;;;;;;;563.33;515.70;;;;;;;24.01;62.08;98876.13;285238;34;7356;-76
2022/09/16 00:01:20;;;;;;;568.20;520.45;;;;;;;23.93;62.54;98873.44;285752;34;9310;-76
2022/09/16 00:01:31;;;;;;;573.80;525.90;;;;;;;23.89;62.48;98870.25;286251;34;8854;-76
2022/09/16 00:01:41;;;;;;;576.67;528.63;;;;;;;23.85;62.42;98866.25;287330;34;1373;-76
2022/09/16 00:01:52;;;;;;;570.72;522.92;;;;;;;23.81;62.52;98870.28;280948;34;9063;-76
2022/09/16 00:04:10;;;;;;;526.73;479.36;;;;;;;23.91;62.47;98879.94;2495139;27;20485;-76
2022/09/16 00:04:21;;;;;;;562.07;514.50;;;;;;;23.89;62.57;98877.44;351172;28;1499;-76
2022/09/16 00:04:31;;;;;;;562.65;515.13;;;;;;;23.88;62.76;98876.59;350025;28;1358;-76
2022/09/16 00:04:42;;;;;;;562.60;515.17;;;;;;;23.88;62.72;98875.75;348639;28;1207;-76
2022/09/16 00:04:53;;;;;;;557.13;509.95;;;;;;;23.88;62.51;98870.41;350085;28;1233;-78
2022/09/16 00:05:04;;;;;;;561.17;514.05;;;;;;;23.88;62.74;98881.09;350166;28;2214;-78
2022/09/16 00:05:14;;;;;;;566.30;519.10;;;;;;;23.87;62.45;98876.75;349489;28;3357;-76
2022/09/16 00:05:25;;;;;;;572.80;525.53;;;;;;;23.87;62.97;98868.75;348028;28;4332;-76
2022/09/16 00:06:01;;;;;;;574.50;527.00;;;;;;;23.88;62.94;98875.75;348478;28;2976;-76
2022/09/16 00:06:22;;;;;;;574.50;526.65;;;;;;;23.88;62.87;98875.75;342948;28;1540;-76
2022/09/16 00:06:32;;;;;;;563.17;515.78;;;;;;;23.88;62.99;98876.59;343246;28;970;-76
2022/09/16 00:06:42;;;;;;;570.80;523.47;;;;;;;23.88;63.04;98871.25;347162;28;1212;-77
2022/09/16 00:06:53;;;;;;;580.07;532.37;;;;;;;23.87;63.15;98869.59;348172;28;959;-75
2022/09/16 00:07:03;;;;;;;583.75;535.85;;;;;;;23.87;62.83;98869.59;345855;28;1855;-75
2022/09/16 00:07:14;;;;;;;588.37;540.27;;;;;;;23.88;62.99;98870.41;344571;28;1745;-77
2022/09/16 00:07:24;;;;;;;584.55;536.75;;;;;;;23.89;63.10;98877.44;343060;28;1088;-76
2022/09/16 00:07:34;;;;;;;583.17;535.53;;;;;;;23.88;63.08;98876.59;342987;28;1641;-76
2022/09/16 00:07:45;;;;;;;568.03;520.63;;;;;;;23.91;62.99;98872.75;341594;28;1378;-76
2022/09/16 00:07:55;;;;;;;571.37;523.73;;;;;;;23.92;62.89;98868.25;342979;28;1663;-76
2022/09/16 00:08:06;;;;;;;575.65;527.78;;;;;;;23.92;62.98;98866.41;341761;28;1075;-76
2022/09/16 00:08:16;;;;;;;582.03;533.90;;;;;;;23.93;62.76;98870.75;344361;28;1371;-76
2022/09/16 00:08:27;;;;;;;577.35;529.50;;;;;;;23.92;62.98;98874.44;341924;28;912;-76
2022/09/16 00:08:39;;;;;;;567.87;520.40;;;;;;;23.92;62.57;98877.09;340407;28;1537;-77
2022/09/16 00:08:49;;;;;;;555.55;508.70;;;;;;;23.93;62.57;98872.59;341590;28;1292;-77
2022/09/16 00:09:00;;;;;;;555.25;508.30;;;;;;;23.92;62.87;98871.75;341455;28;1590;-77
2022/09/16 00:09:10;;;;;;;559.60;512.40;;;;;;;23.93;62.96;98872.59;343090;28;1182;-77
2022/09/16 00:09:21;;;;;;;562.00;514.53;;;;;;;23.93;62.53;98868.09;343136;28;1311;-77
2022/09/16 00:09:31;;;;;;;567.73;520.10;;;;;;;23.94;62.73;98868.94;343467;28;881;-77
2022/09/16 00:09:41;;;;;;;575.38;527.42;;;;;;;23.94;62.59;98872.44;343133;28;1496;-76
2022/09/16 00:09:52;;;;;;;570.73;522.77;;;;;;;23.94;62.86;98872.44;340780;28;1554;-77
2022/09/16 00:10:03;;;;;;;567.87;519.53;;;;;;;23.94;62.42;98874.28;339865;28;1700;-77
2022/09/16 00:10:13;;;;;;;560.10;511.92;;;;;;;23.94;62.83;98874.28;341858;28;941;-77
2022/09/16 00:10:24;;;;;;;552.95;505.00;;;;;;;23.95;62.96;98870.59;341625;28;917;-77
2022/09/16 00:10:34;;;;;;;548.43;500.87;;;;;;;23.94;62.58;98877.78;340965;28;1738;-77
2022/09/16 00:10:44;;;;;;;552.38;504.85;;;;;;;23.94;62.79;98875.09;338904;29;1262;-77
2022/09/16 00:10:59;;;;;;;555.40;507.97;;;;;;;23.95;62.81;98879.44;335086;29;1833;-76
2022/09/16 00:11:09;;;;;;;555.60;508.42;;;;;;;23.94;62.88;98883.13;337961;29;917;-76
2022/09/16 00:11:20;;;;;;;558.45;511.10;;;;;;;23.93;62.85;98878.78;336440;29;1277;-76
2022/09/16 00:11:33;;;;;;;553.15;505.80;;;;;;;23.92;63.02;98876.28;335345;29;1168;-76
2022/09/16 00:11:43;;;;;;;564.35;516.47;;;;;;;23.91;62.94;98871.94;337698;29;1410;-76
2022/09/16 00:11:53;;;;;;;570.70;522.53;;;;;;;23.89;63.23;98874.75;337285;29;886;-77
2022/09/16 00:12:05;;;;;;;572.97;524.73;;;;;;;23.87;63.57;98868.75;332671;29;1324;-77
2022/09/16 00:12:15;;;;;;;558.42;510.42;;;;;;;23.84;63.54;98874.41;334875;29;1461;-76
2022/09/16 00:12:26;;;;;;;550.97;503.37;;;;;;;23.83;63.63;98867.41;336629;29;1104;-76
2022/09/16 00:12:36;;;;;;;548.80;501.43;;;;;;;23.81;63.59;98858.75;333736;29;1799;-76
2022/09/16 00:12:47;;;;;;;552.83;505.38;;;;;;;23.81;63.84;98864.94;331275;29;1657;-77
2022/09/16 00:12:58;;;;;;;555.15;507.50;;;;;;;23.81;63.71;98869.44;335172;29;1636;-77
2022/09/16 00:13:09;;;;;;;553.30;505.65;;;;;;;23.80;64.38;98867.75;334939;29;1430;-77
2022/09/16 00:13:19;;;;;;;549.58;502.08;;;;;;;23.80;63.74;98873.09;333317;29;1403;-77
2022/09/16 00:13:30;;;;;;;552.73;505.37;;;;;;;23.78;63.51;98869.75;334160;29;983;-77
2022/09/16 00:13:40;;;;;;;555.40;507.95;;;;;;;23.79;64.13;98876.78;333042;29;1715;-77
2022/09/16 00:13:51;;;;;;;555.17;507.53;;;;;;;23.79;63.77;98874.94;329422;29;1154;-76
2022/09/16 00:14:01;;;;;;;555.97;508.23;;;;;;;23.80;63.61;98873.09;329084;29;1427;-76
2022/09/16 00:14:12;;;;;;;555.87;508.03;;;;;;;23.82;64.09;98874.63;329163;30;939;-76
2022/09/16 00:14:22;;;;;;;567.20;519.30;;;;;;;23.83;63.59;98873.59;331901;29;1963;-76
2022/09/16 00:14:32;;;;;;;570.07;522.07;;;;;;;23.82;63.91;98873.78;326395;29;3958;-76
2022/09/16 00:14:43;;;;;;;569.70;521.78;;;;;;;23.83;63.82;98878.09;329850;29;1960;-77
2022/09/16 00:14:53;;;;;;;564.73;516.77;;;;;;;23.84;63.63;98879.75;328494;29;2041;-77
2022/09/16 00:15:04;;;;;;;561.40;513.43;;;;;;;23.84;64.18;98874.41;327175;29;2269;-77
2022/09/16 00:15:15;;;;;;;557.53;509.70;;;;;;;23.83;63.79;98868.25;327706;29;1627;-76
2022/09/16 00:15:25;;;;;;;565.28;517.33;;;;;;;23.84;63.57;98874.41;322912;30;1341;-76
2022/09/16 00:15:36;;;;;;;563.60;515.95;;;;;;;23.84;63.79;98871.75;326296;30;1641;-76
2022/09/16 00:15:49;;;;;;;564.23;516.57;;;;;;;23.82;64.05;98871.94;328714;30;1515;-76
2022/09/16 00:16:00;;;;;;;561.40;514.05;;;;;;;23.84;63.67;98879.75;326033;30;1840;-76
2022/09/16 00:16:14;;;;;;;563.03;515.40;;;;;;;23.83;63.79;98867.41;321606;30;1339;-76
2022/09/16 00:16:25;;;;;;;559.33;511.73;;;;;;;23.79;63.80;98874.94;321714;30;1394;-77
2022/09/16 00:16:36;;;;;;;563.42;515.80;;;;;;;23.79;63.81;98871.44;321299;30;2409;-77
2022/09/16 00:16:46;;;;;;;557.00;509.53;;;;;;;23.80;63.62;98875.78;318322;30;2488;-77
2022/09/16 00:16:57;;;;;;;567.08;519.13;;;;;;;23.79;63.87;98872.28;321460;30;840;-76
2022/09/16 00:17:07;;;;;;;569.27;520.97;;;;;;;23.80;63.66;98875.78;323858;30;2598;-76
2022/09/16 00:17:18;;;;;;;569.58;521.17;;;;;;;23.79;63.71;98874.94;325219;30;2857;-76
2022/09/16 00:17:29;;;;;;;560.77;512.97;;;;;;;23.79;63.50;98868.75;321711;30;1198;-76
2022/09/16 00:17:40;;;;;;;560.58;513.08;;;;;;;23.78;63.69;98869.75;324208;30;1360;-76
2022/09/16 00:17:50;;;;;;;558.87;511.60;;;;;;;23.78;63.47;98872.44;325560;30;1327;-76
2022/09/16 00:18:01;;;;;;;554.15;507.05;;;;;;;23.78;63.64;98867.94;321556;30;2260;-76
2022/09/16 00:18:11;;;;;;;560.53;513.23;;;;;;;23.78;63.62;98869.75;320709;30;1216;-76
2022/09/16 00:18:21;;;;;;;569.00;521.33;;;;;;;23.79;63.58;98866.09;317750;30;2863;-76
2022/09/16 00:18:32;;;;;;;566.80;519.00;;;;;;;23.80;63.31;98873.09;315162;30;2775;-76
2022/09/16 00:18:42;;;;;;;563.20;515.40;;;;;;;23.79;63.33;98866.94;314832;31;958;-76
2022/09/16 00:18:54;;;;;;;560.13;512.50;;;;;;;23.78;63.34;98864.41;315113;31;3216;-76
2022/09/16 00:19:04;;;;;;;568.60;521.00;;;;;;;23.79;63.13;98871.44;318902;30;3390;-75
2022/09/16 00:19:15;;;;;;;565.20;517.73;;;;;;;23.76;63.43;98867.25;317338;31;3512;-77
2022/09/16 00:19:26;;;;;;;557.72;510.35;;;;;;;23.76;63.74;98867.25;313885;31;887;-77
2022/09/16 00:19:36;;;;;;;551.90;504.45;;;;;;;23.77;64.02;98868.09;312400;31;3417;-76
2022/09/16 00:19:48;;;;;;;547.97;500.63;;;;;;;23.78;63.44;98864.41;312476;31;2415;-76
2022/09/16 00:19:58;;;;;;;544.88;497.48;;;;;;;23.77;63.70;98862.75;319525;30;1344;-76
2022/09/16 00:20:09;;;;;;;548.00;500.70;;;;;;;23.75;63.82;98870.09;318726;30;2358;-75
2022/09/16 00:20:20;;;;;;;552.08;504.77;;;;;;;23.74;63.77;98863.91;317216;30;2882;-75
2022/09/16 00:20:30;;;;;;;558.20;510.63;;;;;;;23.75;63.98;98859.41;313945;31;3640;-76
2022/09/16 00:20:48;;;;;;;550.20;502.83;;;;;;;23.73;63.81;98866.75;310545;31;2077;-76
2022/09/16 00:20:58;;;;;;;545.97;499.05;;;;;;;23.71;63.86;98858.91;309307;31;1279;-76
2022/09/16 00:21:09;;;;;;;554.80;507.63;;;;;;;23.72;64.02;98865.91;312209;31;4262;-77
2022/09/16 00:21:19;;;;;;;559.08;511.80;;;;;;;23.73;63.91;98866.75;309085;31;4245;-76
2022/09/16 00:21:30;;;;;;;563.67;515.97;;;;;;;23.72;64.21;98865.91;309843;31;4580;-76
2022/09/16 00:21:40;;;;;;;561.75;514.00;;;;;;;23.73;64.27;98872.09;308293;32;1265;-76
2022/09/16 00:21:51;;;;;;;566.17;518.33;;;;;;;23.73;64.04;98866.75;308201;31;4708;-76
2022/09/16 00:22:02;;;;;;;570.40;522.37;;;;;;;23.73;63.93;98869.41;305927;31;3190;-76
2022/09/16 00:22:12;;;;;;;572.60;524.47;;;;;;;23.73;63.91;98869.41;307709;31;1268;-76
2022/09/16 00:22:23;;;;;;;565.50;517.60;;;;;;;23.72;64.13;98871.25;309351;31;3254;-76
2022/09/16 00:22:33;;;;;;;562.97;515.42;;;;;;;23.73;63.87;98867.59;307869;31;4263;-76
2022/09/16 00:22:44;;;;;;;565.40;517.75;;;;;;;23.74;64.20;98863.06;307236;32;1302;-76
2022/09/16 00:22:54;;;;;;;564.43;516.70;;;;;;;23.74;63.95;98871.09;303101;31;5048;-76
2022/09/16 00:23:04;;;;;;;565.45;517.63;;;;;;;23.75;63.73;98870.09;303826;32;5628;-76
2022/09/16 00:23:15;;;;;;;565.90;518.10;;;;;;;23.75;64.08;98864.75;304914;32;5826;-76
2022/09/16 00:23:26;;;;;;;572.08;524.10;;;;;;;23.74;64.05;98873.75;303875;32;1330;-76
2022/09/16 00:23:36;;;;;;;572.33;524.50;;;;;;;23.75;64.10;98864.75;306247;32;6002;-76
2022/09/16 00:23:47;;;;;;;569.83;522.17;;;;;;;23.73;64.11;98872.94;303274;32;5864;-76
2022/09/16 00:23:57;;;;;;;570.57;523.10;;;;;;;23.75;64.10;98864.75;300838;32;3409;-76
2022/09/16 00:24:12;;;;;;;580.87;532.83;;;;;;;23.73;63.78;98867.59;299731;32;6158;-76
2022/09/16 00:24:22;;;;;;;572.90;524.85;;;;;;;23.73;64.14;98866.75;300660;32;5172;-76
2022/09/16 00:24:32;;;;;;;563.67;515.90;;;;;;;23.72;64.00;98862.41;297750;32;5133;-76
2022/09/16 00:24:43;;;;;;;567.90;520.23;;;;;;;23.72;63.95;98865.06;295811;33;949;-76
2022/09/16 00:24:53;;;;;;;572.50;524.78;;;;;;;23.72;63.79;98865.06;300175;32;6111;-76
2022/09/16 00:25:04;;;;;;;581.87;533.83;;;;;;;23.72;63.98;98865.91;298230;32;6569;-77
2022/09/16 00:25:15;;;;;;;574.22;526.40;;;;;;;23.70;63.99;98867.06;297325;32;7781;-76
2022/09/16 00:25:25;;;;;;;579.67;531.60;;;;;;;23.70;64.20;98865.25;296836;33;917;-77
2022/09/16 00:25:35;;;;;;;572.78;524.65;;;;;;;23.69;64.12;98866.25;292750;33;8290;-76
2022/09/16 00:25:52;;;;;;;567.93;519.77;;;;;;;23.69;63.80;98868.06;291032;33;8994;-76
2022/09/16 00:26:03;;;;;;;571.78;523.75;;;;;;;23.69;64.06;98870.75;285780;34;8003;-76
2022/09/16 00:26:13;;;;;;;575.15;527.10;;;;;;;23.70;63.78;98867.06;286981;34;1304;-76
2022/09/16 00:26:24;;;;;;;569.47;521.47;;;;;;;23.70;63.72;98867.06;281079;34;8423;-76
2022/09/16 00:26:37;;;;;;;562.40;514.50;;;;;;;23.70;64.03;98867.06;282579;34;6266;-77
2022/09/16 00:26:47;;;;;;;560.13;512.63;;;;;;;23.70;64.22;98869.75;285152;34;7055;-76
2022/09/16 00:28:22;;;;;;;516.95;470.54;;;;;;;23.64;64.48;98857.03;2480284;27;20499;-76
2022/09/16 00:28:33;;;;;;;563.17;515.50;;;;;;;23.63;64.41;98858.03;351354;28;923;-76
2022/09/16 00:28:43;;;;;;;565.83;518.30;;;;;;;23.63;64.09;98855.38;350120;28;1562;-76
2022/09/16 00:28:54;;;;;;;569.67;522.00;;;;;;;23.62;64.10;98859.88;348534;28;1328;-76
2022/09/16 00:29:04;;;;;;;567.08;519.45;;;;;;;23.63;64.52;98856.19;346982;28;1692;-76
2022/09/16 00:29:14;;;;;;;561.53;513.80;;;;;;;23.62;64.83;98853.69;344573;28;821;-76
2022/09/16 00:29:25;;;;;;;555.30;507.83;;;;;;;23.63;64.58;98856.19;344558;28;1298;-78
2022/09/16 00:29:35;;;;;;;552.60;505.10;;;;;;;23.62;64.91;98854.53;344538;28;1260;-76
2022/09/16 00:29:46;;;;;;;554.10;506.43;;;;;;;23.61;64.81;98852.03;344529;28;885;-76
2022/09/16 00:29:56;;;;;;;556.38;508.77;;;;;;;23.60;64.71;98861.88;347130;28;1224;-76
2022/09/16 00:30:07;;;;;;;563.00;515.43;;;;;;;23.60;64.73;98855.69;347079;28;1300;-76
2022/09/16 00:30:18;;;;;;;559.80;512.42;;;;;;;23.60;64.73;98850.34;347021;28;1534;-76
2022/09/16 00:30:28;;;;;;;555.60;508.33;;;;;;;23.58;64.90;98855.03;347581;28;1383;-76
2022/09/16 00:30:38;;;;;;;562.67;515.17;;;;;;;23.55;64.77;98857.03;345938;28;1381;-77
2022/09/16 00:30:49;;;;;;;569.45;521.83;;;;;;;23.55;64.71;98851.69;346011;28;1317;-77
2022/09/16 00:31:00;;;;;;;581.07;533.17;;;;;;;23.57;64.63;98858.69;347221;28;758;-77
2022/09/16 00:31:11;;;;;;;575.10;527.45;;;;;;;23.57;64.76;98853.34;345818;28;897;-76
2022/09/16 00:31:21;;;;;;;567.70;520.08;;;;;;;23.57;64.91;98861.38;347156;28;1229;-76
2022/09/16 00:31:31;;;;;;;563.73;515.93;;;;;;;23.58;64.70;98863.03;348612;28;1010;-77
2022/09/16 00:31:42;;;;;;;566.17;518.17;;;;;;;23.58;64.87;98860.38;345799;28;1347;-76
2022/09/16 00:31:52;;;;;;;569.03;520.87;;;;;;;23.58;64.66;98861.19;344357;28;1338;-77
2022/09/16 00:32:03;;;;;;;572.15;524.13;;;;;;;23.59;64.83;98864.72;342514;28;1488;-76
2022/09/16 00:32:13;;;;;;;578.13;530.10;;;;;;;23.59;64.74;98870.06;344301;28;1022;-76
2022/09/16 00:32:23;;;;;;;580.53;532.60;;;;;;;23.59;64.85;98864.72;343189;28;1185;-76
2022/09/16 00:32:34;;;;;;;574.63;526.90;;;;;;;23.59;64.48;98865.53;343274;28;1224;-76
2022/09/16 00:32:44;;;;;;;573.87;526.43;;;;;;;23.59;64.91;98868.22;343584;28;1137;-76
2022/09/16 00:32:55;;;;;;;576.33;528.83;;;;;;;23.59;64.83;98870.06;341493;28;3868;-78
2022/09/16 00:33:05;;;;;;;583.77;536.07;;;;;;;23.58;64.75;98863.03;336250;29;3026;-76
2022/09/16 00:33:16;;;;;;;578.22;530.53;;;;;;;23.58;64.76;98863.88;339473;29;3344;-76
2022/09/16 00:33:26;;;;;;;568.50;520.63;;;;;;;23.57;64.82;98858.69;340043;28;1908;-77
2022/09/16 00:33:37;;;;;;;557.47;509.92;;;;;;;23.57;64.97;98856.03;341547;28;3313;-76
2022/09/16 00:33:47;;;;;;;565.10;517.13;;;;;;;23.59;64.68;98862.03;342354;28;1896;-76
2022/09/16 00:33:57;;;;;;;573.33;525.15;;;;;;;23.58;64.87;98861.19;343239;28;968;-77
2022/09/16 00:34:08;;;;;;;580.63;532.23;;;;;;;23.58;64.49;98863.88;341715;28;837;-77
2022/09/16 00:34:18;;;;;;;576.50;528.53;;;;;;;23.58;64.82;98857.69;339117;29;1835;-77
2022/09/16 00:34:29;;;;;;;570.97;523.30;;;;;;;23.57;64.61;98862.19;339275;28;1312;-75
2022/09/16 00:34:39;;;;;;;571.27;523.57;;;;;;;23.58;64.84;98861.19;337950;29;885;-77
2022/09/16 00:34:50;;;;;;;575.67;527.90;;;;;;;23.56;65.08;98865.88;342423;28;1475;-77
2022/09/16 00:35:00;;;;;;;573.15;525.45;;;;;;;23.53;65.07;98867.03;339014;29;1350;-77
2022/09/16 00:35:11;;;;;;;561.30;513.93;;;;;;;23.52;65.02;98859.97;341761;28;1336;-77
2022/09/16 00:35:21;;;;;;;567.55;520.05;;;;;;;23.52;65.10;98859.97;339131;29;936;-77
2022/09/16 00:35:32;;;;;;;577.30;529.73;;;;;;;23.52;64.98;98859.16;339268;29;811;-77
2022/09/16 00:35:43;;;;;;;586.22;538.45;;;;;;;23.52;65.06;98856.47;337937;29;1365;-80
2022/09/16 00:36:09;;;;;;;581.10;533.47;;;;;;;23.51;65.19;98860.97;340416;29;867;-80
2022/09/16 00:36:20;;;;;;;562.88;515.95;;;;;;;23.51;65.34;98863.66;337708;29;1521;-79
2022/09/16 00:36:30;;;;;;;561.63;514.58;;;;;;;23.51;65.39;98860.16;338193;29;1285;-80
2022/09/16 00:36:40;;;;;;;557.30;510.20;;;;;;;23.51;65.35;98858.31;336911;29;897;-78
2022/09/16 00:36:51;;;;;;;556.97;509.63;;;;;;;23.52;65.24;98859.97;336638;29;1259;-80
2022/09/16 00:37:02;;;;;;;564.50;517.10;;;;;;;23.54;65.23;98854.50;335382;29;1536;-78
2022/09/16 00:37:13;;;;;;;569.97;522.72;;;;;;;23.53;65.22;98859.00;336496;29;1964;-79
2022/09/16 00:37:24;;;;;;;578.10;530.83;;;;;;;23.54;65.75;98860.69;336883;29;1325;-79
2022/09/16 00:37:34;;;;;;;581.97;534.70;;;;;;;23.51;65.11;98854.81;339698;29;1831;-78
2022/09/16 00:37:45;;;;;;;577.25;529.72;;;;;;;23.45;65.55;98858.97;336651;29;1380;-78
2022/09/16 00:37:55;;;;;;;576.80;529.23;;;;;;;23.37;65.26;98850.94;332977;29;1219;-80
2022/09/16 00:38:06;;;;;;;576.10;528.53;;;;;;;23.33;65.89;98860.28;334006;29;949;-78
2022/09/16 00:38:16;;;;;;;585.93;538.37;;;;;;;23.30;65.98;98857.94;335028;29;1556;-79
2022/09/16 00:38:27;;;;;;;586.20;538.45;;;;;;;23.29;65.82;98861.59;332758;29;1880;-78
2022/09/16 00:38:37;;;;;;;592.00;544.03;;;;;;;23.22;65.93;98858.75;331731;29;1014;-79
2022/09/16 00:38:51;;;;;;;595.35;547.20;;;;;;;23.17;66.32;98855.72;332919;29;1928;-78
2022/09/16 00:39:02;;;;;;;599.05;551.00;;;;;;;23.14;66.27;98860.53;330892;29;2258;-79
2022/09/16 00:39:12;;;;;;;598.60;550.50;;;;;;;23.12;66.37;98851.84;331580;29;2127;-78
2022/09/16 00:39:23;;;;;;;610.90;562.47;;;;;;;23.16;66.03;98858.53;329401;29;1461;-78
2022/09/16 00:39:34;;;;;;;618.93;570.47;;;;;;;23.16;66.49;98863.88;332911;29;1561;-78
2022/09/16 00:39:48;;;;;;;622.67;574.28;;;;;;;23.18;66.24;98864.56;329760;29;1524;-77
2022/09/16 00:39:58;;;;;;;624.25;575.55;;;;;;;23.19;66.32;98859.06;328918;29;1018;-76
2022/09/16 00:40:09;;;;;;;628.05;579.03;;;;;;;23.22;66.25;98857.91;331458;29;1333;-75
2022/09/16 00:40:19;;;;;;;626.40;577.40;;;;;;;23.26;66.19;98864.59;328326;30;1497;-75
2022/09/16 00:40:30;;;;;;;622.60;573.87;;;;;;;23.27;66.03;98855.59;327412;29;2108;-76
2022/09/16 00:40:44;;;;;;;627.33;578.60;;;;;;;23.30;66.20;98860.59;328958;30;1198;-77
2022/09/16 00:40:55;;;;;;;629.00;580.13;;;;;;;23.30;66.21;98857.09;324001;30;1565;-76
2022/09/16 00:41:05;;;;;;;630.70;581.47;;;;;;;23.31;65.95;98859.63;323709;30;2366;-76
2022/09/16 00:41:18;;;;;;;631.97;582.75;;;;;;;23.32;66.04;98857.78;324561;29;2503;-76
2022/09/16 00:41:32;;;;;;;635.67;586.70;;;;;;;23.32;66.23;98861.28;325205;30;2310;-76
2022/09/16 00:41:43;;;;;;;635.75;586.90;;;;;;;23.33;65.87;98864.78;324315;30;1405;-76
2022/09/16 00:41:53;;;;;;;648.25;599.08;;;;;;;23.33;66.41;98865.63;326250;30;835;-76
2022/09/16 00:42:04;;;;;;;652.93;603.63;;;;;;;23.34;66.21;98858.44;321903;30;3710;-76
2022/09/16 00:42:14;;;;;;;663.92;614.28;;;;;;;23.35;66.01;98863.63;317544;30;5280;-77
2022/09/16 00:42:25;;;;;;;665.00;615.33;;;;;;;23.36;65.71;98867.97;320168;30;5104;-76
2022/09/16 00:42:39;;;;;;;663.72;613.92;;;;;;;23.38;66.09;98862.47;320621;30;2309;-76
2022/09/16 00:42:49;;;;;;;660.28;610.78;;;;;;;23.41;65.79;98862.97;317686;30;2854;-76
2022/09/16 00:43:00;;;;;;;658.87;609.33;;;;;;;23.42;65.84;98867.28;314985;30;2920;-76
2022/09/16 00:43:14;;;;;;;651.25;602.00;;;;;;;23.44;66.13;98867.97;315913;31;1479;-75
2022/09/16 00:43:24;;;;;;;649.22;600.17;;;;;;;23.44;66.25;98869.81;319254;30;1287;-76
2022/09/16 00:43:47;;;;;;;650.10;600.97;;;;;;;23.44;66.17;98873.31;324216;30;2844;-76
2022/09/16 00:43:59;;;;;;;657.90;608.65;;;;;;;23.45;66.02;98866.97;321379;30;1870;-76
2022/09/16 00:44:47;;;;;;;658.40;609.20;;;;;;;23.43;66.09;98871.66;319330;30;1502;-76
2022/09/16 00:45:03;;;;;;;652.97;603.83;;;;;;;23.40;66.50;98871.97;311744;31;3936;-76
2022/09/16 00:45:24;;;;;;;660.85;611.58;;;;;;;23.39;66.58;98873.00;307138;31;4500;-76
2022/09/16 00:45:34;;;;;;;658.65;608.80;;;;;;;23.40;66.63;98877.31;307993;31;4897;-76
2022/09/16 00:45:47;;;;;;;662.90;612.87;;;;;;;23.40;66.78;98871.97;306710;32;4067;-76
2022/09/16 00:46:01;;;;;;;661.90;612.00;;;;;;;23.40;66.53;98871.13;303367;32;4102;-76
2022/09/16 00:46:11;;;;;;;657.10;607.55;;;;;;;23.39;66.50;98870.31;304274;32;2875;-76
2022/09/16 00:46:26;;;;;;;660.00;610.57;;;;;;;23.37;66.66;98874.16;303029;32;900;-76
2022/09/16 00:46:41;;;;;;;661.03;611.63;;;;;;;23.35;66.41;98868.97;297768;32;1309;-76
2022/09/16 00:46:51;;;;;;;659.58;610.20;;;;;;;23.35;66.73;98874.31;294678;32;4627;-76
2022/09/16 00:47:01;;;;;;;666.03;616.58;;;;;;;23.34;66.67;98877.97;290268;33;5216;-76
2022/09/16 00:47:13;;;;;;;675.50;625.93;;;;;;;23.32;66.73;98869.28;287373;33;5694;-76
2022/09/16 00:47:35;;;;;;;673.78;624.08;;;;;;;23.33;66.99;98876.31;288959;34;1287;-76
2022/09/16 00:47:56;;;;;;;663.28;613.83;;;;;;;23.35;66.73;98871.66;293674;33;6256;-76
2022/09/16 00:48:08;;;;;;;669.63;620.00;;;;;;;23.38;66.58;98871.31;282426;35;1274;-76
2022/09/16 00:48:20;;;;;;;672.47;622.88;;;;;;;23.38;66.71;98873.16;280852;34;5652;-76
2022/09/16 00:48:30;;;;;;;664.70;615.35;;;;;;;23.40;66.67;98871.97;280721;34;3439;-77
2022/09/16 00:48:41;;;;;;;661.27;612.17;;;;;;;23.40;66.68;98871.97;281535;35;1535;-76
2022/09/16 00:48:51;;;;;;;660.45;611.35;;;;;;;23.39;66.35;98870.31;276960;35;1588;-76
2022/09/16 00:49:12;;;;;;;668.37;618.90;;;;;;;23.36;66.62;98870.66;272620;35;6866;-76
2022/09/16 00:49:27;;;;;;;678.42;628.53;;;;;;;23.36;66.62;98865.31;275319;35;1137;-76
2022/09/16 00:49:37;;;;;;;677.15;627.35;;;;;;;23.37;66.44;98871.47;267362;36;4543;-75
2022/09/16 00:49:48;;;;;;;677.50;627.70;;;;;;;23.37;66.51;98872.31;265686;36;9448;-76
2022/09/16 00:50:03;;;;;;;677.13;627.20;;;;;;;23.36;66.22;98870.66;264009;36;9244;-76
2022/09/16 00:52:03;;;;;;;619.04;570.91;;;;;;;23.35;67.04;98866.31;2489523;27;20859;-76
2022/09/16 00:52:14;;;;;;;674.22;624.47;;;;;;;23.37;66.52;98877.66;351576;28;1125;-76
2022/09/16 00:52:25;;;;;;;682.20;632.30;;;;;;;23.37;66.98;98871.47;350117;28;879;-76
2022/09/16 00:52:35;;;;;;;681.72;631.83;;;;;;;23.37;66.49;98876.81;347210;28;1326;-77
2022/09/16 00:52:46;;;;;;;677.43;627.77;;;;;;;23.38;66.87;98879.34;350074;28;978;-77
2022/09/16 00:52:56;;;;;;;673.65;624.05;;;;;;;23.37;66.13;98880.34;348707;28;1511;-76
2022/09/16 00:53:08;;;;;;;666.97;617.63;;;;;;;23.39;66.56;98881.00;350212;28;994;-76
2022/09/16 00:53:24;;;;;;;670.92;621.53;;;;;;;23.38;66.67;98881.16;347142;28;1371;-76
2022/09/16 00:53:43;;;;;;;674.38;624.75;;;;;;;23.37;66.44;98882.16;347266;28;1390;-77
2022/09/16 00:53:56;;;;;;;671.35;621.58;;;;;;;23.35;66.55;98882.31;346596;28;1035;-76
2022/09/16 00:54:08;;;;;;;675.40;625.28;;;;;;;23.35;66.65;98882.31;348484;28;1270;-77
2022/09/16 00:54:19;;;;;;;688.78;638.25;;;;;;;23.34;67.07;98880.66;349956;28;1407;-77
2022/09/16 00:54:29;;;;;;;687.50;637.20;;;;;;;23.34;66.76;98882.50;349956;28;1429;-76
2022/09/16 00:54:40;;;;;;;683.72;633.70;;;;;;;23.33;66.82;98875.47;348463;28;1264;-76
2022/09/16 00:54:50;;;;;;;673.47;623.67;;;;;;;23.33;66.85;98881.66;347227;28;1162;-76
2022/09/16 00:55:02;;;;;;;676.28;626.33;;;;;;;23.32;67.25;98879.97;348658;28;938;-77
2022/09/16 00:55:23;;;;;;;675.05;625.28;;;;;;;23.31;67.07;98883.66;347126;28;864;-76
2022/09/16 00:55:35;;;;;;;678.55;628.78;;;;;;;23.32;67.13;98885.31;348496;28;1403;-76
2022/09/16 00:55:45;;;;;;;677.63;627.72;;;;;;;23.31;67.23;98878.31;348863;28;950;-76
2022/09/16 00:55:56;;;;;;;679.63;629.77;;;;;;;23.31;67.07;98883.66;346319;28;1425;-76
2022/09/16 00:56:08;;;;;;;685.55;635.58;;;;;;;23.31;67.09;98878.31;347110;28;1306;-77
2022/09/16 00:56:21;;;;;;;680.10;630.42;;;;;;;23.33;67.24;98881.66;348420;28;1522;-76
2022/09/16 00:56:34;;;;;;;672.80;623.38;;;;;;;23.34;67.20;98882.50;347194;28;887;-75
2022/09/16 00:56:46;;;;;;;673.53;623.97;;;;;;;23.35;67.18;98884.16;348097;28;911;-75
2022/09/16 00:56:56;;;;;;;676.60;626.83;;;;;;;23.35;67.34;98884.16;343337;28;1310;-76
2022/09/16 00:57:07;;;;;;;682.03;632.13;;;;;;;23.34;67.35;98883.31;341528;28;1438;-75
2022/09/16 00:57:17;;;;;;;680.92;631.08;;;;;;;23.34;67.32;98880.66;345900;28;815;-75
2022/09/16 00:57:28;;;;;;;684.30;634.37;;;;;;;23.34;67.50;98887.84;347607;28;1265;-76
2022/09/16 00:57:38;;;;;;;686.70;636.63;;;;;;;23.33;67.29;98878.97;345655;28;1227;-76
2022/09/16 00:57:48;;;;;;;695.60;645.37;;;;;;;23.33;67.11;98881.66;345910;28;1491;-76
2022/09/16 00:58:03;;;;;;;692.67;642.57;;;;;;;23.34;67.48;98883.31;343105;28;1405;-77
2022/09/16 00:58:23;;;;;;;682.85;633.08;;;;;;;23.33;67.17;98895.00;345116;28;1221;-76
2022/09/16 00:58:49;;;;;;;681.75;632.05;;;;;;;23.32;67.01;98876.47;345259;28;1561;-76
2022/09/16 00:59:13;;;;;;;670.67;621.35;;;;;;;23.34;67.36;98879.81;338484;29;1748;-76